createdAt,value
2023-02-03T00:02:07.552Z,7.27
2023-02-03T00:04:34.099Z,7.17
2023-02-03T00:07:00.649Z,7.13
2023-02-03T00:09:27.166Z,7.15
2023-02-03T00:11:56.428Z,7.09
2023-02-03T00:14:22.927Z,7.23
2023-02-03T00:16:49.617Z,7.18
2023-02-03T00:19:17.632Z,7.16
2023-02-03T00:21:44.483Z,7.17
2023-02-03T00:24:11.991Z,7.05
2023-02-03T00:26:44.888Z,7.21
2023-02-03T00:29:11.781Z,7.12
2023-02-03T00:31:40.887Z,7.15
2023-02-03T00:34:07.537Z,7.14
2023-02-03T00:36:33.980Z,7.18
2023-02-03T00:39:01.545Z,7.14
2023-02-03T00:41:34.024Z,7.17
2023-02-03T00:44:00.554Z,7.24
2023-02-03T00:46:32.041Z,7.22
2023-02-03T00:48:58.554Z,6.79
2023-02-03T00:51:25.106Z,6.85
2023-02-03T00:53:51.589Z,6.93
2023-02-03T00:56:18.058Z,6.92
2023-02-03T00:58:44.517Z,7.00
2023-02-03T01:01:11.122Z,6.99
2023-02-03T01:03:37.998Z,7.01
2023-02-03T01:06:22.507Z,7.13
2023-02-03T01:08:50.083Z,7.17
2023-02-03T01:11:24.008Z,7.24
2023-02-03T01:13:53.774Z,7.20
2023-02-03T01:16:23.780Z,7.07
2023-02-03T01:18:51.439Z,7.03
2023-02-03T01:21:24.156Z,7.01
2023-02-03T01:23:52.107Z,6.99
2023-02-03T01:26:22.222Z,6.99
2023-02-03T01:29:00.155Z,6.92
2023-02-03T01:31:34.795Z,6.92
2023-02-03T01:34:01.703Z,6.92
2023-02-03T01:36:31.602Z,6.90
2023-02-03T01:38:58.249Z,6.87
2023-02-03T01:41:29.661Z,6.93
2023-02-03T01:43:59.636Z,6.73
2023-02-03T01:46:45.720Z,6.87
2023-02-03T01:49:33.646Z,6.87
2023-02-03T01:52:00.456Z,6.99
2023-02-03T01:54:37.671Z,7.11
2023-02-03T01:57:31.116Z,7.08
2023-02-03T02:00:00.522Z,7.00
2023-02-03T02:02:27.389Z,7.02
2023-02-03T02:05:04.596Z,7.11
2023-02-03T02:07:33.570Z,7.11
2023-02-03T02:10:00.621Z,7.12
2023-02-03T02:12:27.149Z,7.11
2023-02-03T02:14:54.437Z,7.17
2023-02-03T02:17:42.231Z,7.17
2023-02-03T02:20:37.441Z,7.27
2023-02-03T02:23:22.545Z,7.17
2023-02-03T02:26:18.200Z,7.14
2023-02-03T02:29:17.701Z,7.09
2023-02-03T02:32:00.181Z,7.14
2023-02-03T02:35:04.717Z,7.14
2023-02-03T02:38:03.180Z,6.91
2023-02-03T02:41:08.380Z,7.03
2023-02-03T02:43:49.987Z,7.09
2023-02-03T02:46:26.479Z,7.15
2023-02-03T02:49:16.616Z,7.13
2023-02-03T02:51:45.434Z,7.22
2023-02-03T02:54:20.652Z,7.20
2023-02-03T02:56:55.249Z,7.18
2023-02-03T02:59:21.859Z,7.18
2023-02-03T03:01:48.421Z,7.33
2023-02-03T03:04:22.023Z,7.21
2023-02-03T03:06:58.872Z,7.03
2023-02-03T03:09:36.038Z,7.17
2023-02-03T03:12:14.561Z,7.16
2023-02-03T03:14:48.181Z,7.15
2023-02-03T03:17:25.796Z,7.10
2023-02-03T03:20:01.394Z,7.10
2023-02-03T03:22:36.954Z,7.13
2023-02-03T03:25:29.896Z,7.14
2023-02-03T03:28:04.865Z,7.16
2023-02-03T03:30:37.447Z,7.09
2023-02-03T03:33:06.541Z,7.12
2023-02-03T03:36:01.467Z,7.01
2023-02-03T03:38:44.923Z,7.03
2023-02-03T03:41:40.588Z,7.14
2023-02-03T03:44:15.075Z,7.23
2023-02-03T03:46:51.887Z,7.24
2023-02-03T03:49:23.398Z,7.32
2023-02-03T03:51:58.337Z,7.17
2023-02-03T03:54:28.566Z,7.34
2023-02-03T03:57:02.436Z,7.23
2023-02-03T03:59:35.859Z,7.32
2023-02-03T04:02:04.832Z,7.44
2023-02-03T04:04:36.341Z,7.36
2023-02-03T04:07:03.217Z,7.28
2023-02-03T04:09:29.880Z,7.22
2023-02-03T04:12:02.120Z,7.22
2023-02-03T04:14:40.721Z,7.19
2023-02-03T04:17:07.300Z,7.24
2023-02-03T04:19:33.761Z,7.20
2023-02-03T04:22:00.208Z,7.05
2023-02-03T04:24:26.733Z,7.15
2023-02-03T04:26:53.261Z,7.03
2023-02-03T04:29:19.712Z,7.11
2023-02-03T04:31:46.327Z,7.18
2023-02-03T04:34:12.909Z,7.14
2023-02-03T04:36:39.428Z,7.15
2023-02-03T04:39:05.969Z,7.05
2023-02-03T04:41:32.506Z,7.11
2023-02-03T04:43:58.985Z,7.16
2023-02-03T04:46:25.656Z,7.17
2023-02-03T04:48:52.153Z,7.24
2023-02-03T04:51:18.843Z,7.20
2023-02-03T04:53:45.367Z,7.26
2023-02-03T04:56:11.853Z,7.20
2023-02-03T05:12:11.480Z,8.15
2023-02-03T05:14:38.023Z,7.61
2023-02-03T05:17:04.520Z,7.42
2023-02-03T05:19:31.001Z,7.32
2023-02-03T05:21:57.441Z,7.25
2023-02-03T05:24:23.864Z,7.20
2023-02-03T05:26:50.318Z,6.99
2023-02-03T05:29:16.809Z,6.98
2023-02-03T05:31:43.379Z,6.99
2023-02-03T05:34:09.989Z,6.96
2023-02-03T05:36:36.479Z,6.87
2023-02-03T05:39:03.335Z,6.91
2023-02-03T05:41:48.525Z,7.02
2023-02-03T05:44:15.046Z,7.03
2023-02-03T05:46:41.517Z,7.01
2023-02-03T05:49:08.210Z,7.12
2023-02-03T05:51:34.749Z,7.22
2023-02-03T05:54:01.241Z,7.08
2023-02-03T05:56:27.836Z,6.96
2023-02-03T05:58:54.400Z,7.16
2023-02-03T06:01:20.856Z,7.08
2023-02-03T06:03:48.558Z,7.10
2023-02-03T06:06:16.628Z,7.05
2023-02-03T06:08:44.023Z,6.86
2023-02-03T06:11:11.804Z,6.92
2023-02-03T06:13:38.480Z,6.97
2023-02-03T06:16:05.703Z,6.95
2023-02-03T06:18:32.206Z,7.00
2023-02-03T06:20:58.722Z,7.09
2023-02-03T06:23:25.336Z,7.15
2023-02-03T06:25:52.698Z,7.18
2023-02-03T06:28:19.338Z,7.09
2023-02-03T06:30:49.144Z,7.20
2023-02-03T06:33:15.643Z,7.20
2023-02-03T06:35:42.093Z,7.22
2023-02-03T06:38:08.546Z,7.36
2023-02-03T06:40:34.999Z,7.27
2023-02-03T06:43:01.507Z,7.23
2023-02-03T06:45:28.027Z,7.16
2023-02-03T06:47:54.555Z,7.23
2023-02-03T06:50:21.141Z,7.32
2023-02-03T06:52:50.097Z,7.19
2023-02-03T06:55:16.639Z,7.18
2023-02-03T06:57:45.262Z,7.10
2023-02-03T07:00:15.085Z,7.12
2023-02-03T07:02:42.961Z,7.10
2023-02-03T07:05:09.631Z,7.11
2023-02-03T07:07:36.931Z,7.14
2023-02-03T07:10:03.632Z,7.07
2023-02-03T07:12:31.464Z,6.99
2023-02-03T07:14:57.994Z,7.09
2023-02-03T07:17:24.445Z,7.07
2023-02-03T07:19:50.882Z,7.06
2023-02-03T07:22:17.397Z,7.05
2023-02-03T07:24:43.884Z,7.14
2023-02-03T07:27:10.336Z,7.16
2023-02-03T07:29:36.855Z,7.12
2023-02-03T07:32:03.683Z,7.20
2023-02-03T07:34:30.273Z,7.26
2023-02-03T07:36:57.633Z,7.30
2023-02-03T07:39:24.177Z,7.30
2023-02-03T07:41:50.688Z,7.37
2023-02-03T07:44:17.182Z,7.29
2023-02-03T07:46:45.458Z,7.29
2023-02-03T07:49:12.947Z,7.28
2023-02-03T07:51:40.379Z,7.27
2023-02-03T07:54:07.527Z,7.29
2023-02-03T07:56:34.166Z,7.40
2023-02-03T07:59:00.739Z,7.38
2023-02-03T08:01:27.666Z,7.46
2023-02-03T08:03:55.215Z,7.51
2023-02-03T08:06:22.537Z,7.51
2023-02-03T08:08:49.094Z,7.43
2023-02-03T08:11:15.548Z,7.38
2023-02-03T08:13:42.016Z,7.35
2023-02-03T08:16:08.673Z,6.98
2023-02-03T08:18:35.183Z,6.99
2023-02-03T08:21:03.538Z,7.10
2023-02-03T08:23:30.637Z,7.00
2023-02-03T08:25:57.107Z,7.21
2023-02-03T08:28:23.837Z,7.22
2023-02-03T08:30:51.179Z,7.24
2023-02-03T08:33:17.736Z,7.27
2023-02-03T08:35:49.822Z,7.30
2023-02-03T08:38:17.407Z,7.39
2023-02-03T08:40:43.976Z,7.36
2023-02-03T08:43:11.185Z,7.40
2023-02-03T08:45:40.474Z,7.33
2023-02-03T08:48:07.269Z,7.35
2023-02-03T08:50:33.896Z,7.24
2023-02-03T08:53:00.436Z,7.18
2023-02-03T08:55:27.151Z,7.29
2023-02-03T08:57:53.892Z,7.34
2023-02-03T09:00:21.040Z,7.41
2023-02-03T09:02:47.582Z,7.33
2023-02-03T09:05:15.890Z,7.30
2023-02-03T09:07:42.454Z,7.27
2023-02-03T09:10:09.534Z,7.20
2023-02-03T09:12:36.077Z,7.16
2023-02-03T09:15:02.745Z,7.02
2023-02-03T09:17:29.216Z,7.19
2023-02-03T09:19:55.773Z,7.26
2023-02-03T09:22:22.272Z,7.32
2023-02-03T09:24:50.624Z,7.44
2023-02-03T09:27:17.332Z,7.36
2023-02-03T09:29:43.872Z,7.25
2023-02-03T09:32:10.619Z,7.19
2023-02-03T09:34:39.749Z,7.14
2023-02-03T09:37:06.206Z,7.20
2023-02-03T09:39:32.826Z,7.25
2023-02-03T09:42:19.697Z,7.25
2023-02-03T09:45:08.710Z,7.06
2023-02-03T09:47:41.145Z,6.96
2023-02-03T09:50:19.946Z,7.04
2023-02-03T09:52:47.934Z,6.94
2023-02-03T09:55:28.623Z,6.98
2023-02-03T09:58:12.934Z,6.98
2023-02-03T10:00:50.512Z,7.02
2023-02-03T10:03:44.201Z,6.97
2023-02-03T10:06:38.388Z,7.09
2023-02-03T10:09:24.365Z,6.99
2023-02-03T10:12:13.876Z,6.97
2023-02-03T10:15:00.451Z,6.98
2023-02-03T10:17:39.099Z,7.04
2023-02-03T10:20:55.305Z,7.10
2023-02-03T10:23:33.650Z,7.14
2023-02-03T10:26:07.498Z,7.28
2023-02-03T10:28:45.435Z,6.97
2023-02-03T10:31:21.637Z,6.94
2023-02-03T10:33:54.593Z,7.14
2023-02-03T10:36:39.615Z,7.30
2023-02-03T10:39:37.011Z,7.22
2023-02-03T10:42:06.450Z,7.24
2023-02-03T10:44:51.231Z,7.19
2023-02-03T10:47:24.296Z,7.21
2023-02-03T10:49:54.299Z,7.32
2023-02-03T10:52:36.190Z,7.26
2023-02-03T10:55:30.012Z,7.18
2023-02-03T10:57:58.212Z,7.13
2023-02-03T11:00:31.974Z,7.23
2023-02-03T11:03:27.334Z,7.24
2023-02-03T11:06:11.484Z,7.32
2023-02-03T11:08:46.157Z,7.46
2023-02-03T11:11:24.485Z,7.36
2023-02-03T11:14:03.975Z,7.44
2023-02-03T11:16:34.945Z,7.36
2023-02-03T11:19:10.207Z,7.46
2023-02-03T11:21:39.505Z,7.54
2023-02-03T11:24:32.651Z,7.39
2023-02-03T11:27:09.481Z,7.42
2023-02-03T11:29:43.301Z,7.35
2023-02-03T11:32:27.615Z,7.23
2023-02-03T11:35:07.101Z,7.24
2023-02-03T11:37:39.291Z,7.43
2023-02-03T11:40:08.612Z,7.35
2023-02-03T11:42:42.017Z,7.37
2023-02-03T11:45:26.000Z,7.26
2023-02-03T11:48:01.859Z,7.27
2023-02-03T11:50:43.605Z,7.34
2023-02-03T11:53:27.464Z,7.52
2023-02-03T11:56:24.626Z,7.55
2023-02-03T11:59:08.845Z,7.73
2023-02-03T12:01:56.749Z,7.32
2023-02-03T12:05:02.157Z,7.26
2023-02-03T12:07:47.036Z,7.45
2023-02-03T12:10:27.418Z,7.43
2023-02-03T12:13:40.129Z,7.36
2023-02-03T12:16:50.061Z,7.42
2023-02-03T12:19:41.584Z,7.47
2023-02-03T12:22:44.819Z,7.55
2023-02-03T12:25:58.468Z,7.75
2023-02-03T12:28:46.538Z,7.61
2023-02-03T12:31:29.490Z,7.45
2023-02-03T12:34:30.432Z,7.33
2023-02-03T12:37:09.505Z,7.40
2023-02-03T12:39:46.564Z,7.45
2023-02-03T12:42:26.125Z,7.57
2023-02-03T12:45:14.613Z,7.72
2023-02-03T12:48:00.466Z,7.59
2023-02-03T12:50:45.903Z,7.38
2023-02-03T12:53:30.869Z,7.28
2023-02-03T12:56:14.605Z,7.39
2023-02-03T12:58:57.317Z,7.57
2023-02-03T13:01:42.875Z,7.60
2023-02-03T13:04:24.842Z,7.47
2023-02-03T13:07:09.009Z,7.21
2023-02-03T13:09:56.958Z,7.40
2023-02-03T13:12:45.191Z,7.35
2023-02-03T13:15:39.996Z,7.16
2023-02-03T13:18:29.460Z,7.12
2023-02-03T13:20:56.571Z,7.21
2023-02-03T13:23:24.992Z,7.33
2023-02-03T13:26:28.493Z,7.20
2023-02-03T13:29:47.676Z,7.11
2023-02-03T13:33:20.214Z,7.26
2023-02-03T13:36:23.320Z,7.23
2023-02-03T13:39:02.000Z,7.59
2023-02-03T13:41:54.833Z,7.49
2023-02-03T13:44:29.539Z,7.49
2023-02-03T13:47:01.734Z,7.43
2023-02-03T13:49:36.676Z,7.36
2023-02-03T13:52:04.279Z,7.33
2023-02-03T13:54:37.526Z,7.48
2023-02-03T13:57:22.039Z,7.41
2023-02-03T13:59:49.687Z,7.51
2023-02-03T14:02:43.440Z,7.56
2023-02-03T14:05:41.045Z,7.28
2023-02-03T14:08:25.843Z,7.24
2023-02-03T14:12:12.348Z,7.19
2023-02-03T14:14:38.750Z,7.32
2023-02-03T14:17:34.385Z,7.40
2023-02-03T14:20:27.276Z,7.59
2023-02-03T14:22:58.555Z,7.58
2023-02-03T14:25:27.933Z,7.60
2023-02-03T14:28:14.449Z,7.49
2023-02-03T14:31:06.526Z,7.63
2023-02-03T14:33:48.029Z,7.74
2023-02-03T14:36:39.893Z,7.65
2023-02-03T14:39:18.582Z,7.69
2023-02-03T14:42:03.053Z,7.81
2023-02-03T14:44:58.519Z,7.60
2023-02-03T14:47:34.887Z,7.62
2023-02-03T14:50:19.707Z,7.78
2023-02-03T14:53:04.674Z,7.56
2023-02-03T14:55:52.381Z,7.84
2023-02-03T14:58:34.656Z,7.75
2023-02-03T15:01:05.010Z,7.97
2023-02-03T15:03:31.832Z,7.85
2023-02-03T15:06:03.403Z,7.78
2023-02-03T15:08:46.370Z,7.74
2023-02-03T15:11:30.418Z,7.69
2023-02-03T15:14:25.108Z,7.66
2023-02-03T15:17:02.484Z,7.82
2023-02-03T15:19:49.749Z,7.98
2023-02-03T15:22:30.393Z,7.82
2023-02-03T15:25:02.679Z,7.69
2023-02-03T15:27:32.268Z,7.59
2023-02-03T15:30:13.914Z,7.67
2023-02-03T15:32:52.408Z,7.70
2023-02-03T15:35:20.931Z,7.90
2023-02-03T15:38:23.332Z,7.79
2023-02-03T15:40:57.618Z,7.94
2023-02-03T15:43:31.167Z,7.92
2023-02-03T15:46:20.852Z,7.67
2023-02-03T15:48:54.401Z,7.78
2023-02-03T15:51:38.988Z,7.34
2023-02-03T15:54:24.769Z,7.07
2023-02-03T15:57:01.847Z,7.15
2023-02-03T15:59:46.186Z,6.94
2023-02-03T16:02:23.150Z,6.94
2023-02-03T16:04:50.424Z,6.95
2023-02-03T16:07:30.141Z,6.66
2023-02-03T16:09:59.763Z,6.97
2023-02-03T16:12:32.390Z,6.87
2023-02-03T16:15:01.949Z,6.77
2023-02-03T16:17:35.007Z,6.65
2023-02-03T16:20:10.477Z,6.62
2023-02-03T16:22:44.901Z,6.63
2023-02-03T16:25:25.564Z,6.64
2023-02-03T16:28:35.233Z,6.46
2023-02-03T16:31:32.304Z,6.40
2023-02-03T16:34:21.417Z,6.61
2023-02-03T16:37:06.718Z,6.90
2023-02-03T16:39:52.130Z,6.88
2023-02-03T16:42:39.388Z,6.86
2023-02-03T16:45:37.129Z,6.56
2023-02-03T16:48:22.665Z,6.71
2023-02-03T16:50:59.643Z,6.58
2023-02-03T16:53:32.684Z,6.55
2023-02-03T16:56:04.247Z,6.57
2023-02-03T16:58:31.825Z,6.47
2023-02-03T17:01:02.893Z,6.45
2023-02-03T17:03:30.294Z,6.58
2023-02-03T17:05:57.613Z,6.45
2023-02-03T17:08:26.318Z,6.39
2023-02-03T17:10:53.463Z,6.41
2023-02-03T17:13:22.530Z,6.64
2023-02-03T17:15:54.990Z,6.39
2023-02-03T17:18:22.296Z,6.42
2023-02-03T17:20:49.017Z,6.28
2023-02-03T17:23:16.740Z,6.24
2023-02-03T17:25:49.372Z,6.29
2023-02-03T17:28:16.365Z,6.41
2023-02-03T17:30:43.126Z,6.26
2023-02-03T17:33:12.714Z,5.98
2023-02-03T17:35:44.704Z,5.99
2023-02-03T17:38:13.920Z,6.36
2023-02-03T17:54:27.430Z,6.15
2023-02-03T17:56:54.036Z,6.12
2023-02-03T17:59:20.498Z,5.92
2023-02-03T18:01:47.057Z,5.90
2023-02-03T18:04:13.661Z,5.92
2023-02-03T18:06:43.065Z,6.12
2023-02-03T18:09:10.334Z,5.94
2023-02-03T18:11:37.858Z,5.98
2023-02-03T18:14:05.845Z,6.03
2023-02-03T18:16:35.732Z,6.08
2023-02-03T18:19:07.164Z,5.92
2023-02-03T18:21:36.103Z,6.06
2023-02-03T18:24:05.801Z,6.36
2023-02-03T18:26:36.330Z,6.27
2023-02-03T18:29:05.901Z,6.27
2023-02-03T18:31:33.044Z,6.26
2023-02-03T18:34:04.456Z,6.41
2023-02-03T18:36:32.725Z,6.36
2023-02-03T18:38:59.324Z,6.55
2023-02-03T18:41:26.815Z,6.22
2023-02-03T18:43:53.735Z,6.29
2023-02-03T18:46:25.271Z,6.21
2023-02-03T18:48:52.150Z,6.14
2023-02-03T18:51:21.338Z,6.18
2023-02-03T18:53:49.374Z,6.32
2023-02-03T18:56:23.417Z,6.37
2023-02-03T18:58:50.352Z,6.23
2023-02-03T19:01:30.170Z,6.28
2023-02-03T19:04:00.520Z,6.20
2023-02-03T19:06:30.459Z,6.14
2023-02-03T19:08:58.664Z,6.20
2023-02-03T19:11:25.813Z,6.27
2023-02-03T19:13:52.301Z,6.24
2023-02-03T19:16:19.474Z,6.28
2023-02-03T19:18:47.297Z,6.57
2023-02-03T19:21:14.747Z,6.43
2023-02-03T19:23:42.866Z,6.40
2023-02-03T19:26:10.411Z,6.27
2023-02-03T19:28:38.749Z,6.27
2023-02-03T19:31:09.320Z,6.10
2023-02-03T19:33:37.253Z,6.05
2023-02-03T19:36:05.867Z,6.33
2023-02-03T19:38:32.704Z,6.03
2023-02-03T19:41:01.485Z,6.02
2023-02-03T19:43:30.200Z,6.10
2023-02-03T19:45:56.732Z,5.88
2023-02-03T19:48:23.276Z,5.87
2023-02-03T19:50:49.982Z,5.85
2023-02-03T19:53:18.302Z,5.83
2023-02-03T19:55:46.413Z,5.83
2023-02-03T19:58:14.057Z,5.93
2023-02-03T20:00:42.682Z,5.96
2023-02-03T20:03:10.028Z,5.82
2023-02-03T20:05:37.021Z,5.78
2023-02-03T20:08:04.283Z,5.80
2023-02-03T20:10:32.401Z,5.72
2023-02-03T20:12:59.273Z,5.78
2023-02-03T20:15:26.839Z,5.89
2023-02-03T20:17:53.501Z,5.92
2023-02-03T20:20:20.908Z,5.88
2023-02-03T20:22:48.150Z,5.98
2023-02-03T20:25:14.779Z,5.91
2023-02-03T20:27:41.989Z,6.03
2023-02-03T20:30:11.335Z,6.10
2023-02-03T20:32:38.148Z,6.19
2023-02-03T20:35:06.189Z,6.11
2023-02-03T20:37:35.865Z,6.21
2023-02-03T20:40:12.198Z,6.03
2023-02-03T20:42:38.635Z,6.06
2023-02-03T20:45:14.590Z,6.12
2023-02-03T20:47:42.280Z,6.08
2023-02-03T20:50:25.144Z,6.00
2023-02-03T20:52:55.523Z,5.96
2023-02-03T20:55:24.157Z,6.35
2023-02-03T20:57:54.123Z,6.21
2023-02-03T21:00:25.454Z,6.00
2023-02-03T21:03:10.871Z,5.94
2023-02-03T21:05:42.062Z,5.83
2023-02-03T21:08:20.242Z,5.78
2023-02-03T21:10:48.319Z,5.99
2023-02-03T21:13:26.313Z,5.94
2023-02-03T21:15:59.953Z,5.89
2023-02-03T21:18:35.506Z,5.81
2023-02-03T21:21:03.222Z,5.88
2023-02-03T21:23:48.130Z,5.70
2023-02-03T21:26:25.669Z,5.98
2023-02-03T21:28:55.501Z,5.82
2023-02-03T21:31:29.790Z,5.72
2023-02-03T21:33:59.770Z,5.66
2023-02-03T21:36:31.516Z,5.51
2023-02-03T21:39:00.011Z,5.54
2023-02-03T21:41:32.857Z,5.56
2023-02-03T21:44:00.409Z,5.66
2023-02-03T21:46:29.285Z,5.48
2023-02-03T21:49:00.736Z,5.44
2023-02-03T21:51:36.456Z,5.38
2023-02-03T21:54:32.877Z,5.43
2023-02-03T21:57:01.125Z,5.53
2023-02-03T21:59:38.584Z,5.55
2023-02-03T22:02:55.453Z,5.56
2023-02-03T22:05:21.987Z,5.36
2023-02-03T22:07:48.515Z,5.33
2023-02-03T22:10:15.317Z,5.42
2023-02-03T22:12:41.837Z,5.41
2023-02-03T22:15:09.206Z,5.55
2023-02-03T22:17:35.699Z,5.45
2023-02-03T22:20:02.202Z,5.54
2023-02-03T22:22:30.818Z,5.57
2023-02-03T22:24:57.403Z,5.57
2023-02-03T22:27:25.416Z,5.61
2023-02-03T22:29:53.228Z,5.33
2023-02-03T22:32:19.891Z,5.44
2023-02-03T22:34:47.143Z,5.51
2023-02-03T22:37:13.604Z,5.64
2023-02-03T22:39:40.029Z,5.65
2023-02-03T22:42:06.628Z,5.72
2023-02-03T22:44:33.119Z,5.90
2023-02-03T22:46:59.552Z,5.94
2023-02-03T22:49:26.056Z,5.88
2023-02-03T22:51:52.603Z,5.86
2023-02-03T22:54:19.150Z,5.90
2023-02-03T22:56:45.646Z,5.99
2023-02-03T22:59:12.149Z,6.07
2023-02-03T23:01:38.620Z,6.02
2023-02-03T23:04:05.258Z,5.85
2023-02-03T23:06:31.731Z,5.89
2023-02-03T23:08:58.212Z,5.92
2023-02-03T23:11:24.826Z,5.99
2023-02-03T23:13:51.359Z,6.02
2023-02-03T23:16:17.863Z,6.03
2023-02-03T23:18:44.452Z,5.91
2023-02-03T23:21:10.928Z,5.92
2023-02-03T23:23:37.402Z,5.92
2023-02-03T23:26:03.938Z,6.02
2023-02-03T23:28:30.398Z,6.08
2023-02-03T23:30:56.963Z,6.04
2023-02-03T23:33:23.586Z,6.00
2023-02-03T23:35:50.662Z,5.90
2023-02-03T23:38:18.168Z,5.70
2023-02-03T23:40:45.300Z,5.74
2023-02-03T23:43:14.859Z,5.98
2023-02-03T23:45:41.561Z,6.04
2023-02-03T23:48:08.451Z,5.80
2023-02-03T23:50:35.116Z,5.87
2023-02-03T23:53:01.661Z,5.80
2023-02-03T23:55:29.021Z,5.75
2023-02-03T23:57:55.525Z,5.89
